createdAt,value
2024-01-25T00:00:48.560Z,98010.66
2024-01-25T00:03:37.264Z,98007.37
2024-01-25T00:06:09.420Z,98007.73
2024-01-25T00:08:37.600Z,97997.23
2024-01-25T00:11:06.359Z,97991.96
2024-01-25T00:13:34.483Z,97991.05
2024-01-25T00:16:02.664Z,97987.33
2024-01-25T00:18:31.262Z,97977.46
2024-01-25T00:20:59.445Z,97971.67
2024-01-25T00:23:27.783Z,97977.27
2024-01-25T00:25:59.429Z,97982.11
2024-01-25T00:28:29.552Z,97985.66
2024-01-25T00:30:57.837Z,97982.58
2024-01-25T00:33:26.185Z,97979.06
2024-01-25T00:35:54.784Z,97983.67
2024-01-25T00:38:23.276Z,97989.94
2024-01-25T00:40:51.643Z,97988.04
2024-01-25T00:43:20.210Z,97983.45
2024-01-25T00:45:48.769Z,97979.87
2024-01-25T00:48:17.306Z,97980.97
2024-01-25T00:50:45.751Z,97976.23
2024-01-25T00:53:14.137Z,97973.30
2024-01-25T00:55:42.802Z,97959.54
2024-01-25T00:58:11.272Z,97950.58
2024-01-25T01:00:39.813Z,97936.84
2024-01-25T01:03:08.998Z,97928.15
2024-01-25T01:05:37.625Z,97926.52
2024-01-25T01:08:06.652Z,97917.92
2024-01-25T01:10:34.989Z,97910.16
2024-01-25T01:13:03.317Z,97907.09
2024-01-25T01:15:31.603Z,97914.95
2024-01-25T01:17:59.779Z,97927.67
2024-01-25T01:20:28.244Z,97928.21
2024-01-25T01:22:56.341Z,97926.63
2024-01-25T01:25:24.552Z,97928.79
2024-01-25T01:27:52.785Z,97921.43
2024-01-25T01:30:21.885Z,97916.44
2024-01-25T01:32:50.006Z,97916.36
2024-01-25T01:35:19.073Z,97916.77
2024-01-25T01:37:47.144Z,97912.08
2024-01-25T01:40:15.294Z,97912.70
2024-01-25T01:42:43.383Z,97903.43
2024-01-25T01:45:14.190Z,97895.58
2024-01-25T01:47:43.094Z,97891.23
2024-01-25T01:50:11.671Z,97888.60
2024-01-25T01:52:40.800Z,97888.89
2024-01-25T01:55:09.663Z,97890.01
2024-01-25T01:57:38.486Z,97887.88
2024-01-25T02:00:10.438Z,97878.96
2024-01-25T02:02:41.604Z,97880.54
2024-01-25T02:05:10.324Z,97877.17
2024-01-25T02:07:41.715Z,97885.92
2024-01-25T02:10:10.698Z,97885.80
2024-01-25T02:12:39.393Z,97885.36
2024-01-25T02:15:08.754Z,97882.03
2024-01-25T02:17:37.970Z,97884.98
2024-01-25T02:20:07.255Z,97889.02
2024-01-25T02:22:35.479Z,97875.63
2024-01-25T02:25:03.863Z,97877.76
2024-01-25T02:27:32.221Z,97874.59
2024-01-25T02:30:00.287Z,97879.71
2024-01-25T02:32:28.492Z,97884.81
2024-01-25T02:34:56.639Z,97883.98
2024-01-25T02:37:25.084Z,97879.05
2024-01-25T02:39:54.519Z,97879.55
2024-01-25T02:42:22.643Z,97882.05
2024-01-25T02:44:50.876Z,97878.27
2024-01-25T02:47:20.254Z,97882.20
2024-01-25T02:49:48.532Z,97878.64
2024-01-25T02:52:17.357Z,97874.64
2024-01-25T02:54:45.527Z,97875.61
2024-01-25T02:57:13.854Z,97880.02
2024-01-25T02:59:41.991Z,97878.93
2024-01-25T03:02:10.335Z,97874.63
2024-01-25T03:04:38.668Z,97867.87
2024-01-25T03:07:07.664Z,97862.48
2024-01-25T03:09:35.914Z,97864.33
2024-01-25T03:12:04.115Z,97862.09
2024-01-25T03:14:32.153Z,97859.09
2024-01-25T03:17:00.229Z,97860.84
2024-01-25T03:19:29.030Z,97859.10
2024-01-25T03:21:57.383Z,97861.92
2024-01-25T03:24:25.808Z,97855.80
2024-01-25T03:26:53.843Z,97850.27
2024-01-25T03:29:21.959Z,97847.99
2024-01-25T03:31:51.192Z,97854.71
2024-01-25T03:34:19.905Z,97847.98
2024-01-25T03:36:48.198Z,97850.22
2024-01-25T03:39:16.415Z,97845.52
2024-01-25T03:41:44.461Z,97841.19
2024-01-25T03:44:13.169Z,97841.20
2024-01-25T03:46:41.357Z,97840.75
2024-01-25T03:49:09.640Z,97836.74
2024-01-25T03:51:38.398Z,97837.11
2024-01-25T03:54:06.544Z,97840.55
2024-01-25T03:56:34.605Z,97837.52
2024-01-25T03:59:02.653Z,97843.80
2024-01-25T04:01:32.178Z,97851.82
2024-01-25T04:04:00.936Z,97850.68
2024-01-25T04:06:29.710Z,97841.71
2024-01-25T04:08:57.828Z,97839.05
2024-01-25T04:11:28.299Z,97834.23
2024-01-25T04:13:57.225Z,97836.41
2024-01-25T04:16:26.021Z,97834.98
2024-01-25T04:18:54.361Z,97843.05
2024-01-25T04:21:22.632Z,97850.09
2024-01-25T04:23:50.731Z,97856.73
2024-01-25T04:26:18.862Z,97853.81
2024-01-25T04:28:47.257Z,97850.28
2024-01-25T04:31:15.457Z,97840.85
2024-01-25T04:33:47.098Z,97839.60
2024-01-25T04:36:17.162Z,97839.78
2024-01-25T04:38:45.470Z,97848.60
2024-01-25T04:41:13.481Z,97852.48
2024-01-25T04:43:41.537Z,97861.39
2024-01-25T04:46:10.492Z,97863.14
2024-01-25T04:48:38.856Z,97860.83
2024-01-25T04:51:08.082Z,97862.52
2024-01-25T04:53:37.046Z,97866.20
2024-01-25T04:56:05.350Z,97866.92
2024-01-25T04:58:33.378Z,97866.77
2024-01-25T05:01:01.596Z,97868.25
2024-01-25T05:03:29.948Z,97865.83
2024-01-25T05:05:58.150Z,97861.90
2024-01-25T05:08:26.324Z,97859.77
2024-01-25T05:10:54.362Z,97855.77
2024-01-25T05:13:22.424Z,97855.04
2024-01-25T05:15:50.608Z,97853.76
2024-01-25T05:18:19.252Z,97851.58
2024-01-25T05:20:47.501Z,97848.59
2024-01-25T05:23:15.604Z,97854.20
2024-01-25T05:25:43.671Z,97853.43
2024-01-25T05:28:11.874Z,97848.73
2024-01-25T05:30:40.579Z,97851.29
2024-01-25T05:33:08.909Z,97848.69
2024-01-25T05:35:37.561Z,97844.45
2024-01-25T05:38:05.810Z,97842.31
2024-01-25T05:40:34.063Z,97844.95
2024-01-25T05:43:02.153Z,97839.23
2024-01-25T05:45:30.257Z,97833.98
2024-01-25T05:47:58.508Z,97825.71
2024-01-25T05:50:26.980Z,97821.63
2024-01-25T05:52:55.243Z,97817.52
2024-01-25T05:55:23.333Z,97817.02
2024-01-25T05:57:51.382Z,97816.28
2024-01-25T06:00:21.876Z,97808.16
2024-01-25T06:02:50.376Z,97804.13
2024-01-25T06:05:20.440Z,97799.46
2024-01-25T06:07:51.262Z,97802.73
2024-01-25T06:10:19.539Z,97807.89
2024-01-25T06:12:47.899Z,97809.02
2024-01-25T06:15:16.353Z,97814.43
2024-01-25T06:17:44.442Z,97820.08
2024-01-25T06:20:13.262Z,97824.77
2024-01-25T06:22:41.445Z,97828.45
2024-01-25T06:25:10.291Z,97827.05
2024-01-25T06:27:38.647Z,97822.59
2024-01-25T06:30:07.785Z,97814.39
2024-01-25T06:32:36.123Z,97811.66
2024-01-25T06:35:05.822Z,97810.11
2024-01-25T06:37:34.354Z,97811.02
2024-01-25T06:40:02.739Z,97812.44
2024-01-25T06:42:30.918Z,97815.70
2024-01-25T06:44:59.095Z,97814.90
2024-01-25T06:47:27.150Z,97811.66
2024-01-25T06:49:55.290Z,97813.36
2024-01-25T06:52:23.994Z,97815.03
2024-01-25T06:54:52.288Z,97817.20
2024-01-25T06:57:21.069Z,97807.11
2024-01-25T06:59:49.191Z,97808.69
2024-01-25T07:02:18.564Z,97807.98
2024-01-25T07:04:47.338Z,97803.11
2024-01-25T07:07:15.802Z,97798.13
2024-01-25T07:09:43.989Z,97790.95
2024-01-25T07:12:12.313Z,97784.96
2024-01-25T07:14:40.498Z,97790.43
2024-01-25T07:17:08.497Z,97795.80
2024-01-25T07:19:36.667Z,97802.66
2024-01-25T07:22:04.981Z,97795.84
2024-01-25T07:24:33.170Z,97796.98
2024-01-25T07:27:01.372Z,97801.77
2024-01-25T07:29:30.264Z,97800.42
2024-01-25T07:31:58.348Z,97795.42
2024-01-25T07:34:26.527Z,97792.34
2024-01-25T07:36:54.728Z,97798.46
2024-01-25T07:39:22.898Z,97797.57
2024-01-25T07:41:50.915Z,97793.56
2024-01-25T07:44:20.586Z,97794.15
2024-01-25T07:46:48.622Z,97795.52
2024-01-25T07:49:16.792Z,97793.54
2024-01-25T07:51:45.121Z,97792.30
2024-01-25T07:54:14.817Z,97793.66
2024-01-25T07:56:42.957Z,97795.23
2024-01-25T07:59:11.492Z,97792.39
2024-01-25T08:01:39.902Z,97792.06
2024-01-25T08:04:08.286Z,97791.05
2024-01-25T08:06:36.518Z,97785.98
2024-01-25T08:09:04.817Z,97782.61
2024-01-25T08:11:32.953Z,97784.01
2024-01-25T08:14:01.128Z,97777.98
2024-01-25T08:16:29.502Z,97781.83
2024-01-25T08:18:57.915Z,97783.74
2024-01-25T08:21:26.316Z,97790.36
2024-01-25T08:23:54.836Z,97799.61
2024-01-25T08:26:22.978Z,97801.98
2024-01-25T08:28:51.014Z,97803.52
2024-01-25T08:31:19.203Z,97807.48
2024-01-25T08:33:49.146Z,97812.13
2024-01-25T08:36:20.900Z,97813.58
2024-01-25T08:38:48.978Z,97810.30
2024-01-25T08:41:17.675Z,97815.05
2024-01-25T08:43:46.218Z,97816.70
2024-01-25T08:46:17.365Z,97816.94
2024-01-25T08:48:45.848Z,97816.86
2024-01-25T08:51:14.368Z,97818.54
2024-01-25T08:53:42.519Z,97815.73
2024-01-25T08:56:11.007Z,97817.34
2024-01-25T08:58:39.165Z,97818.04
2024-01-25T09:01:07.466Z,97818.74
2024-01-25T09:03:35.840Z,97819.25
2024-01-25T09:06:07.164Z,97822.09
2024-01-25T09:08:35.837Z,97827.60
2024-01-25T09:11:04.159Z,97822.68
2024-01-25T09:13:33.986Z,97824.30
2024-01-25T09:16:13.250Z,97821.99
2024-01-25T09:18:41.497Z,97825.07
2024-01-25T09:21:09.721Z,97823.52
2024-01-25T09:23:37.834Z,97821.25
2024-01-25T09:26:08.037Z,97812.34
2024-01-25T09:28:36.329Z,97813.16
2024-01-25T09:31:05.263Z,97813.36
2024-01-25T09:33:36.755Z,97811.38
2024-01-25T09:36:05.384Z,97800.08
2024-01-25T09:38:33.788Z,97803.20
2024-01-25T09:41:02.500Z,97805.98
2024-01-25T09:43:31.969Z,97799.63
2024-01-25T09:46:02.625Z,97799.14
2024-01-25T09:48:31.423Z,97797.15
2024-01-25T09:51:01.646Z,97801.34
2024-01-25T09:53:34.740Z,97796.23
2024-01-25T09:56:10.278Z,97799.22
2024-01-25T09:58:44.258Z,97796.47
2024-01-25T10:01:16.837Z,97796.56
2024-01-25T10:03:49.153Z,97793.80
2024-01-25T10:06:20.387Z,97787.86
2024-01-25T10:08:48.679Z,97783.12
2024-01-25T10:11:17.860Z,97787.58
2024-01-25T10:13:47.545Z,97787.02
2024-01-25T10:16:17.603Z,97787.83
2024-01-25T10:18:49.053Z,97782.78
2024-01-25T10:21:21.205Z,97779.41
2024-01-25T10:23:50.148Z,97774.82
2024-01-25T10:26:19.705Z,97770.34
2024-01-25T10:28:56.792Z,97771.08
2024-01-25T10:31:30.474Z,97763.25
2024-01-25T10:33:59.083Z,97766.34
2024-01-25T10:36:28.907Z,97769.44
2024-01-25T10:38:59.546Z,97764.41
2024-01-25T10:41:29.354Z,97764.58
2024-01-25T10:43:57.911Z,97758.84
2024-01-25T10:46:26.924Z,97761.27
2024-01-25T10:48:58.724Z,97764.95
2024-01-25T10:51:29.297Z,97763.02
2024-01-25T10:53:59.622Z,97755.86
2024-01-25T10:56:27.902Z,97754.96
2024-01-25T10:58:56.262Z,97754.80
2024-01-25T11:01:25.654Z,97749.63
2024-01-25T11:03:55.354Z,97754.15
2024-01-25T11:06:24.536Z,97755.02
2024-01-25T11:08:52.940Z,97754.17
2024-01-25T11:11:21.288Z,97757.45
2024-01-25T11:13:51.516Z,97758.86
2024-01-25T11:16:31.021Z,97758.54
2024-01-25T11:19:06.792Z,97761.55
2024-01-25T11:21:42.651Z,97744.08
2024-01-25T11:24:17.935Z,97740.91
2024-01-25T11:26:47.631Z,97726.88
2024-01-25T11:29:21.456Z,97711.97
2024-01-25T11:31:51.823Z,97698.89
2024-01-25T11:34:20.278Z,97690.90
2024-01-25T11:36:49.646Z,97701.55
2024-01-25T11:39:20.313Z,97715.59
2024-01-25T11:41:50.003Z,97709.83
2024-01-25T11:44:19.368Z,97710.60
2024-01-25T11:46:47.498Z,97711.92
2024-01-25T11:49:15.832Z,97717.31
2024-01-25T11:51:44.191Z,97721.38
2024-01-25T11:54:12.620Z,97715.25
2024-01-25T11:56:43.258Z,97712.73
2024-01-25T11:59:12.624Z,97713.70
2024-01-25T12:01:42.550Z,97716.57
2024-01-25T12:04:11.320Z,97723.70
2024-01-25T12:06:40.039Z,97727.76
2024-01-25T12:09:13.757Z,97724.61
2024-01-25T12:11:43.193Z,97727.21
2024-01-25T12:14:11.485Z,97725.85
2024-01-25T12:16:40.591Z,97718.75
2024-01-25T12:19:09.253Z,97722.06
2024-01-25T12:21:38.306Z,97727.36
2024-01-25T12:24:09.482Z,97719.40
2024-01-25T12:26:39.144Z,97721.79
2024-01-25T12:29:09.292Z,97722.15
2024-01-25T12:31:37.709Z,97726.11
2024-01-25T12:34:16.288Z,97720.20
2024-01-25T12:36:44.670Z,97728.40
2024-01-25T12:39:16.776Z,97734.20
2024-01-25T12:41:48.413Z,97727.27
2024-01-25T12:44:17.182Z,97729.84
2024-01-25T12:46:45.414Z,97729.81
2024-01-25T12:49:13.852Z,97729.27
2024-01-25T12:51:42.225Z,97731.52
2024-01-25T12:54:11.074Z,97728.77
2024-01-25T12:56:39.293Z,97721.24
2024-01-25T12:59:07.825Z,97721.45
2024-01-25T13:01:36.277Z,97718.20
2024-01-25T13:04:05.047Z,97726.23
2024-01-25T13:06:33.278Z,97727.11
2024-01-25T13:09:01.580Z,97738.32
2024-01-25T13:11:29.651Z,97745.85
2024-01-25T13:13:57.841Z,97746.23
2024-01-25T13:16:25.886Z,97751.61
2024-01-25T13:18:54.057Z,97752.14
2024-01-25T13:21:22.162Z,97755.36
2024-01-25T13:23:50.201Z,97749.63
2024-01-25T13:26:18.308Z,97752.73
2024-01-25T13:28:46.497Z,97751.89
2024-01-25T13:31:14.522Z,97751.36
2024-01-25T13:33:46.212Z,97749.83
2024-01-25T13:36:15.974Z,97750.58
2024-01-25T13:38:44.294Z,97745.18
2024-01-25T13:41:12.506Z,97746.96
2024-01-25T13:43:40.647Z,97748.39
2024-01-25T13:46:08.778Z,97748.14
2024-01-25T13:48:36.849Z,97749.52
2024-01-25T13:51:05.195Z,97758.27
2024-01-25T13:53:33.517Z,97758.19
2024-01-25T13:56:01.933Z,97753.91
2024-01-25T13:58:30.110Z,97756.65
2024-01-25T14:00:58.307Z,97758.05
2024-01-25T14:03:26.734Z,97759.60
2024-01-25T14:05:57.769Z,97760.09
2024-01-25T14:08:26.085Z,97762.70
2024-01-25T14:10:54.189Z,97765.69
2024-01-25T14:13:22.283Z,97773.06
2024-01-25T14:15:50.557Z,97773.48
2024-01-25T14:18:19.221Z,97780.31
2024-01-25T14:20:47.906Z,97779.29
2024-01-25T14:23:16.455Z,97779.14
2024-01-25T14:25:46.725Z,97787.56
2024-01-25T14:28:15.169Z,97790.63
2024-01-25T14:30:44.359Z,97795.36
2024-01-25T14:33:12.639Z,97791.33
2024-01-25T14:35:41.071Z,97794.75
2024-01-25T14:38:09.741Z,97804.04
2024-01-25T14:40:52.933Z,97800.39
2024-01-25T14:43:26.108Z,97791.65
2024-01-25T14:45:54.512Z,97793.82
2024-01-25T14:48:23.126Z,97790.29
2024-01-25T14:50:51.426Z,97785.59
2024-01-25T14:53:20.200Z,97784.98
2024-01-25T14:55:48.328Z,97791.06
2024-01-25T14:58:23.450Z,97788.55
2024-01-25T15:00:53.311Z,97793.34
2024-01-25T15:03:21.871Z,97794.97
2024-01-25T15:05:51.030Z,97800.60
2024-01-25T15:08:19.333Z,97807.91
2024-01-25T15:10:47.434Z,97811.39
2024-01-25T15:13:15.573Z,97817.83
2024-01-25T15:15:45.646Z,97825.76
2024-01-25T15:18:14.163Z,97821.40
2024-01-25T15:20:42.734Z,97827.50
2024-01-25T15:23:11.012Z,97829.05
2024-01-25T15:25:39.188Z,97820.59
2024-01-25T15:28:07.532Z,97822.60
2024-01-25T15:30:35.663Z,97822.06
2024-01-25T15:33:06.216Z,97819.29
2024-01-25T15:35:34.740Z,97815.35
2024-01-25T15:38:06.844Z,97821.25
2024-01-25T15:40:35.616Z,97824.44
2024-01-25T15:43:04.017Z,97826.28
2024-01-25T15:45:32.272Z,97830.98
2024-01-25T15:48:00.633Z,97829.09
2024-01-25T15:50:28.833Z,97828.34
2024-01-25T15:52:56.949Z,97834.98
2024-01-25T15:55:25.121Z,97841.05
2024-01-25T15:57:53.348Z,97839.42
2024-01-25T16:00:21.870Z,97836.69
2024-01-25T16:02:50.028Z,97841.23
2024-01-25T16:05:18.832Z,97838.48
2024-01-25T16:07:50.035Z,97844.92
2024-01-25T16:10:19.714Z,97840.83
2024-01-25T16:12:48.082Z,97845.10
2024-01-25T16:15:18.790Z,97846.80
2024-01-25T16:17:47.409Z,97854.58
2024-01-25T16:20:16.788Z,97853.05
2024-01-25T16:22:44.893Z,97855.48
2024-01-25T16:25:13.020Z,97855.41
2024-01-25T16:27:41.174Z,97856.55
2024-01-25T16:30:09.898Z,97859.31
2024-01-25T16:32:38.164Z,97861.70
2024-01-25T16:35:07.526Z,97865.66
2024-01-25T16:37:35.769Z,97872.34
2024-01-25T16:40:05.160Z,97873.91
2024-01-25T16:42:33.448Z,97879.95
2024-01-25T16:45:01.703Z,97885.02
2024-01-25T16:47:29.827Z,97885.61
2024-01-25T16:49:58.161Z,97890.36
2024-01-25T16:52:26.523Z,97889.06
2024-01-25T16:54:54.678Z,97895.20
2024-01-25T16:57:22.832Z,97896.61
2024-01-25T16:59:51.153Z,97893.92
2024-01-25T17:02:20.605Z,97890.19
2024-01-25T17:04:49.113Z,97887.23
2024-01-25T17:07:17.599Z,97888.48
2024-01-25T17:09:45.777Z,97891.79
2024-01-25T17:12:16.532Z,97896.13
2024-01-25T17:14:44.970Z,97890.77
2024-01-25T17:17:13.113Z,97894.55
2024-01-25T17:19:41.340Z,97897.63
2024-01-25T17:22:09.523Z,97898.44
2024-01-25T17:24:37.647Z,97897.41
2024-01-25T17:27:06.087Z,97900.59
2024-01-25T17:29:34.168Z,97903.66
2024-01-25T17:32:02.986Z,97904.42
2024-01-25T17:34:31.160Z,97908.57
2024-01-25T17:36:59.967Z,97908.69
2024-01-25T17:39:28.174Z,97911.66
2024-01-25T17:41:56.313Z,97913.94
2024-01-25T17:44:24.390Z,97916.33
2024-01-25T17:46:52.485Z,97918.77
2024-01-25T17:49:20.826Z,97914.79
2024-01-25T17:51:49.376Z,97912.37
2024-01-25T17:54:17.937Z,97910.27
2024-01-25T17:56:46.802Z,97912.02
2024-01-25T17:59:15.228Z,97914.61
2024-01-25T18:01:43.531Z,97913.85
2024-01-25T18:04:11.569Z,97914.07
2024-01-25T18:06:39.757Z,97924.90
2024-01-25T18:09:08.797Z,97926.95
2024-01-25T18:11:37.112Z,97926.52
2024-01-25T18:14:05.241Z,97928.41
2024-01-25T18:16:33.273Z,97934.56
2024-01-25T18:19:01.354Z,97929.76
2024-01-25T18:21:31.032Z,97931.21
2024-01-25T18:23:59.228Z,97935.48
2024-01-25T18:26:29.388Z,97936.13
2024-01-25T18:28:58.503Z,97932.84
2024-01-25T18:31:27.187Z,97929.23
2024-01-25T18:33:55.433Z,97929.98
2024-01-25T18:36:23.675Z,97933.92
2024-01-25T18:38:51.811Z,97936.45
2024-01-25T18:41:19.984Z,97931.61
2024-01-25T18:43:48.053Z,97928.48
2024-01-25T18:46:16.232Z,97924.70
2024-01-25T18:48:44.422Z,97927.40
2024-01-25T18:51:12.557Z,97926.80
2024-01-25T18:53:41.005Z,97929.55
2024-01-25T18:56:10.155Z,97932.20
2024-01-25T18:58:38.597Z,97927.73
2024-01-25T19:01:07.870Z,97928.21
2024-01-25T19:03:37.047Z,97920.77
2024-01-25T19:06:07.142Z,97921.75
2024-01-25T19:08:35.631Z,97923.37
2024-01-25T19:11:03.889Z,97925.47
2024-01-25T19:13:31.993Z,97931.84
2024-01-25T19:16:00.173Z,97935.05
2024-01-25T19:18:29.809Z,97937.88
2024-01-25T19:20:58.219Z,97943.09
2024-01-25T19:23:26.377Z,97945.14
2024-01-25T19:25:54.485Z,97937.02
2024-01-25T19:28:24.482Z,97934.05
2024-01-25T19:30:52.534Z,97935.16
2024-01-25T19:33:20.877Z,97937.65
2024-01-25T19:35:54.073Z,97932.15
2024-01-25T19:38:22.726Z,97928.86
2024-01-25T19:40:51.405Z,97928.27
2024-01-25T19:43:20.009Z,97920.52
2024-01-25T19:45:49.445Z,97922.09
2024-01-25T19:48:17.769Z,97922.99
2024-01-25T19:50:46.322Z,97930.11
2024-01-25T19:53:14.430Z,97936.03
2024-01-25T19:55:42.555Z,97934.30
2024-01-25T19:58:10.996Z,97933.64
2024-01-25T20:00:39.417Z,97921.75
2024-01-25T20:03:10.435Z,97924.32
2024-01-25T20:05:38.898Z,97920.55
2024-01-25T20:08:07.993Z,97924.53
2024-01-25T20:10:36.468Z,97926.46
2024-01-25T20:13:04.665Z,97927.11
2024-01-25T20:15:33.049Z,97925.55
2024-01-25T20:18:01.280Z,97924.67
2024-01-25T20:20:38.217Z,97923.38
2024-01-25T20:23:13.785Z,97918.73
2024-01-25T20:25:42.626Z,97926.48
2024-01-25T20:28:10.809Z,97921.30
2024-01-25T20:30:40.427Z,97927.98
2024-01-25T20:33:09.072Z,97933.03
2024-01-25T20:35:37.334Z,97932.48
2024-01-25T20:38:05.465Z,97934.54
2024-01-25T20:40:34.163Z,97934.65
2024-01-25T20:43:02.276Z,97936.65
2024-01-25T20:45:30.486Z,97937.88
2024-01-25T20:47:58.644Z,97938.70
2024-01-25T20:50:34.735Z,97937.77
2024-01-25T20:53:09.378Z,97938.69
2024-01-25T20:55:40.508Z,97937.55
2024-01-25T20:58:08.630Z,97938.42
2024-01-25T21:00:37.068Z,97935.31
2024-01-25T21:03:06.990Z,97925.08
2024-01-25T21:05:35.488Z,97927.55
2024-01-25T21:08:04.013Z,97933.05
2024-01-25T21:10:32.481Z,97927.49
2024-01-25T21:13:00.836Z,97929.59
2024-01-25T21:15:29.271Z,97930.72
2024-01-25T21:17:57.555Z,97936.31
2024-01-25T21:20:25.714Z,97936.44
2024-01-25T21:22:53.792Z,97933.41
2024-01-25T21:25:21.997Z,97930.46
2024-01-25T21:27:50.171Z,97927.23
2024-01-25T21:30:18.635Z,97929.77
2024-01-25T21:32:46.930Z,97928.05
2024-01-25T21:35:15.237Z,97927.71
2024-01-25T21:37:43.307Z,97924.38
2024-01-25T21:40:11.948Z,97923.08
2024-01-25T21:42:40.162Z,97920.77
2024-01-25T21:45:11.381Z,97922.81
2024-01-25T21:47:42.756Z,97923.66
2024-01-25T21:50:11.736Z,97929.32
2024-01-25T21:52:41.309Z,97935.09
2024-01-25T21:55:12.357Z,97940.95
2024-01-25T21:57:48.782Z,97943.59
2024-01-25T22:00:18.148Z,97944.77
2024-01-25T22:02:47.677Z,97946.65
2024-01-25T22:05:17.847Z,97943.41
2024-01-25T22:07:46.659Z,97937.48
2024-01-25T22:10:14.888Z,97939.96
2024-01-25T22:12:43.160Z,97939.32
2024-01-25T22:15:12.228Z,97949.06
2024-01-25T22:17:40.523Z,97946.16
2024-01-25T22:20:09.861Z,97945.95
2024-01-25T22:22:40.372Z,97944.86
2024-01-25T22:25:09.750Z,97942.72
2024-01-25T22:27:38.329Z,97946.58
2024-01-25T22:30:08.643Z,97945.89
2024-01-25T22:32:36.706Z,97945.71
2024-01-25T22:35:06.061Z,97944.36
2024-01-25T22:37:34.366Z,97951.14
2024-01-25T22:40:02.523Z,97943.56
2024-01-25T22:42:31.185Z,97952.10
2024-01-25T22:44:59.355Z,97948.23
2024-01-25T22:47:27.523Z,97953.10
2024-01-25T22:49:55.566Z,97953.50
2024-01-25T22:52:24.476Z,97955.65
2024-01-25T22:54:53.007Z,97956.89
2024-01-25T22:57:21.483Z,97951.02
2024-01-25T22:59:50.768Z,97947.63
2024-01-25T23:02:20.304Z,97939.66
2024-01-25T23:04:48.346Z,97939.45
2024-01-25T23:07:16.386Z,97941.54
2024-01-25T23:09:44.713Z,97949.49
2024-01-25T23:12:13.298Z,97948.25
2024-01-25T23:14:44.649Z,97957.08
2024-01-25T23:17:12.931Z,97960.58
2024-01-25T23:19:41.529Z,97955.67
2024-01-25T23:22:09.847Z,97958.44
2024-01-25T23:24:38.044Z,97962.41
2024-01-25T23:27:07.622Z,97959.73
2024-01-25T23:29:35.656Z,97954.38
2024-01-25T23:32:04.608Z,97953.30
2024-01-25T23:34:33.720Z,97950.34
2024-01-25T23:37:01.882Z,97954.33
2024-01-25T23:39:30.077Z,97945.35
2024-01-25T23:41:58.196Z,97943.45
2024-01-25T23:44:27.001Z,97942.71
2024-01-25T23:46:55.029Z,97941.05
2024-01-25T23:49:23.572Z,97940.67
2024-01-25T23:51:54.502Z,97934.90
2024-01-25T23:54:23.318Z,97925.21
2024-01-25T23:56:51.873Z,97929.73
2024-01-25T23:59:20.050Z,97934.34
